Observation data for Andrews on 11/16/2019      Previous  Date       Current Mesonet Observations  Soil Data  Daily Summary Page  Observations in Plain Language
KANS 160600Z 17007KT 07/M01 A3018 RMK A01 T00731008  RH  057%=      5-min Rain = 0
KANS 160605Z 18007KT 07/M01 A3018 RMK A01 T00721008  RH  058%=      5-min Rain = 0
KANS 160610Z 18007KT 07/M01 A3018 RMK A01 T00701007  RH  058%=      5-min Rain = 0
KANS 160615Z 18007KT 07/M01 A3018 RMK A01 T00691007  RH  059%=      5-min Rain = 0
KANS 160620Z 18007KT 07/M01 A3018 RMK A01 T00671007  RH  060%=      5-min Rain = 0
KANS 160625Z 18006KT 07/M01 A3018 RMK A01 T00661007  RH  060%=      5-min Rain = 0
KANS 160630Z 18006KT 06/M01 A3018 RMK A01 T00641007  RH  061%=      5-min Rain = 0
KANS 160635Z 18006KT 06/M01 A3018 RMK A01 T00621007  RH  062%=      5-min Rain = 0
KANS 160640Z 19005KT 06/M01 A3018 RMK A01 T00601007  RH  063%=      5-min Rain = 0
KANS 160645Z 19005KT 06/M01 A3018 RMK A01 T00581007  RH  064%=      5-min Rain = 0
KANS 160650Z 19005KT 06/M01 A3018 RMK A01 T00561008  RH  064%=      5-min Rain = 0
KANS 160655Z 18005KT 05/M01 A3018 RMK A01 T00541008  RH  065%=      5-min Rain = 0
KANS 160700Z 18005KT 05/M01 A3017 RMK A01 T00521008  RH  066%=      5-min Rain = 0
KANS 160705Z 18005KT 05/M01 A3017 RMK A01 T00511008  RH  067%=      5-min Rain = 0
KANS 160710Z 19006KT 05/M01 A3017 RMK A01 T00491008  RH  067%=      5-min Rain = 0
KANS 160715Z 18006KT 05/M01 A3017 RMK A01 T00481007  RH  068%=      5-min Rain = 0
KANS 160720Z 18006KT 05/M01 A3017 RMK A01 T00471007  RH  068%=      5-min Rain = 0
KANS 160725Z 18005KT 05/M01 A3017 RMK A01 T00461007  RH  069%=      5-min Rain = 0
KANS 160730Z 19006KT 05/M01 A3017 RMK A01 T00461007  RH  069%=      5-min Rain = 0
KANS 160735Z 18006KT 05/M01 A3017 RMK A01 T00461006  RH  070%=      5-min Rain = 0
KANS 160740Z 18006KT 05/M01 A3017 RMK A01 T00461005  RH  070%=      5-min Rain = 0
KANS 160745Z 18006KT 05/M01 A3017 RMK A01 T00471005  RH  070%=      5-min Rain = 0
KANS 160750Z 18006KT 05/M00 A3016 RMK A01 T00491004  RH  070%=      5-min Rain = 0
KANS 160755Z 18006KT 05/M00 A3016 RMK A01 T00511003  RH  069%=      5-min Rain = 0
KANS 160800Z 18006KT 05/M00 A3016 RMK A01 T00521003  RH  069%=      5-min Rain = 0
KANS 160805Z 18006KT 05/M00 A3016 RMK A01 T00521003  RH  068%=      5-min Rain = 0
KANS 160810Z 18006KT 05/M00 A3016 RMK A01 T00531003  RH  068%=      5-min Rain = 0
KANS 160815Z 18006KT 05/M00 A3016 RMK A01 T00521002  RH  068%=      5-min Rain = 0
KANS 160820Z 18006KT 05/M00 A3016 RMK A01 T00531003  RH  068%=      5-min Rain = 0
KANS 160825Z 19006KT 05/M00 A3016 RMK A01 T00531002  RH  068%=      5-min Rain = 0
KANS 160830Z 18006KT 05/M00 A3016 RMK A01 T00531003  RH  068%=      5-min Rain = 0
KANS 160835Z 19006KT 05/M00 A3016 RMK A01 T00521003  RH  069%=      5-min Rain = 0
KANS 160840Z 18005KT 05/M00 A3016 RMK A01 T00511003  RH  069%=      5-min Rain = 0
KANS 160845Z 18005KT 05/M00 A3016 RMK A01 T00501003  RH  069%=      5-min Rain = 0
KANS 160850Z 18005KT 05/M00 A3016 RMK A01 T00481003  RH  070%=      5-min Rain = 0
KANS 160855Z 18005KT 05/M00 A3016 RMK A01 T00471004  RH  070%=      5-min Rain = 0
KANS 160900Z 18005KT 05/M00 A3016 RMK A01 T00461004  RH  071%=      5-min Rain = 0
KANS 160905Z 18005KT 05/M00 A3016 RMK A01 T00451004  RH  071%=      5-min Rain = 0
KANS 160910Z 18005KT 05/M00 A3015 RMK A01 T00451004  RH  072%=      5-min Rain = 0
KANS 160915Z 18005KT 04/M00 A3015 RMK A01 T00441004  RH  072%=      5-min Rain = 0
KANS 160920Z 19005KT 04/M00 A3016 RMK A01 T00441004  RH  072%=      5-min Rain = 0
KANS 160925Z 18005KT 04/M00 A3015 RMK A01 T00431004  RH  072%=      5-min Rain = 0
KANS 160930Z 19006KT 04/M00 A3015 RMK A01 T00431004  RH  072%=      5-min Rain = 0
KANS 160935Z 19006KT 04/M00 A3015 RMK A01 T00441003  RH  072%=      5-min Rain = 0
KANS 160940Z 19006KT 05/M00 A3015 RMK A01 T00471003  RH  071%=      5-min Rain = 0
KANS 160945Z 19007KT 05/M00 A3015 RMK A01 T00491003  RH  070%=      5-min Rain = 0
KANS 160950Z 19007KT 05/M00 A3015 RMK A01 T00501003  RH  069%=      5-min Rain = 0
KANS 160955Z 19007KT 05/M00 A3015 RMK A01 T00501004  RH  069%=      5-min Rain = 0
KANS 161000Z 19007KT 05/M00 A3015 RMK A01 T00491004  RH  069%=      5-min Rain = 0
KANS 161005Z 19006KT 05/M01 A3014 RMK A01 T00481005  RH  070%=      5-min Rain = 0
KANS 161010Z 19007KT 05/M01 A3014 RMK A01 T00461005  RH  070%=      5-min Rain = 0
KANS 161015Z 19007KT 05/M01 A3014 RMK A01 T00451005  RH  071%=      5-min Rain = 0
KANS 161020Z 19006KT 04/M01 A3014 RMK A01 T00441005  RH  071%=      5-min Rain = 0
KANS 161025Z 19006KT 04/M01 A3014 RMK A01 T00441005  RH  071%=      5-min Rain = 0
KANS 161030Z 19006KT 04/M01 A3014 RMK A01 T00431005  RH  072%=      5-min Rain = 0
KANS 161035Z 19006KT 04/M01 A3014 RMK A01 T00421005  RH  072%=      5-min Rain = 0
KANS 161040Z 19006KT 04/M01 A3014 RMK A01 T00421006  RH  072%=      5-min Rain = 0
KANS 161045Z 18006KT 04/M01 A3013 RMK A01 T00401006  RH  073%=      5-min Rain = 0
KANS 161050Z 18006KT 04/M01 A3013 RMK A01 T00391006  RH  073%=      5-min Rain = 0
KANS 161055Z 18007KT 04/M01 A3013 RMK A01 T00381006  RH  074%=      5-min Rain = 0
KANS 161100Z 18007KT 04/M01 A3013 RMK A01 T00381006  RH  074%=      5-min Rain = 0
KANS 161105Z 18007KT 04/M01 A3013 RMK A01 T00401006  RH  073%=      5-min Rain = 0
KANS 161110Z 18007KT 04/M01 A3012 RMK A01 T00411006  RH  073%=      5-min Rain = 0
KANS 161115Z 18007KT 04/M01 A3012 RMK A01 T00421005  RH  072%=      5-min Rain = 0
KANS 161120Z 18007KT 04/M01 A3012 RMK A01 T00431005  RH  071%=      5-min Rain = 0
KANS 161125Z 18007KT 04/M01 A3012 RMK A01 T00431006  RH  071%=      5-min Rain = 0
KANS 161130Z 18008KT 04/M01 A3012 RMK A01 T00431006  RH  071%=      5-min Rain = 0
KANS 161135Z 18007KT 04/M01 A3012 RMK A01 T00421007  RH  071%=      5-min Rain = 0
KANS 161140Z 18007KT 04/M01 A3012 RMK A01 T00421007  RH  072%=      5-min Rain = 0
KANS 161145Z 18007KT 04/M01 A3012 RMK A01 T00411007  RH  072%=      5-min Rain = 0
KANS 161150Z 18007KT 04/M01 A3012 RMK A01 T00421007  RH  072%=      5-min Rain = 0
KANS 161155Z 18007KT 04/M01 A3012 RMK A01 T00421007  RH  071%=      5-min Rain = 0
KANS 161200Z 19007KT 04/M01 A3012 RMK A01 T00421007  RH  071%=      5-min Rain = 0
KANS 161205Z 19007KT 04/M01 A3013 RMK A01 T00421007  RH  071%=      5-min Rain = 0
KANS 161210Z 19006KT 04/M01 A3013 RMK A01 T00421007  RH  072%=      5-min Rain = 0
KANS 161215Z 18007KT 04/M01 A3013 RMK A01 T00421007  RH  072%=      5-min Rain = 0
KANS 161220Z 18007KT 04/M01 A3013 RMK A01 T00421007  RH  071%=      5-min Rain = 0
KANS 161225Z 19006KT 04/M01 A3013 RMK A01 T00411007  RH  072%=      5-min Rain = 0
KANS 161230Z 19006KT 04/M01 A3013 RMK A01 T00411007  RH  072%=      5-min Rain = 0
KANS 161235Z 18006KT 04/M01 A3013 RMK A01 T00401007  RH  072%=      5-min Rain = 0
KANS 161240Z 19006KT 04/M01 A3013 RMK A01 T00401008  RH  072%=      5-min Rain = 0
KANS 161245Z 19006KT 04/M01 A3013 RMK A01 T00401007  RH  072%=      5-min Rain = 0
KANS 161250Z 19006KT 04/M01 A3013 RMK A01 T00391008  RH  072%=      5-min Rain = 0
KANS 161255Z 20006KT 04/M01 A3013 RMK A01 T00391008  RH  072%=      5-min Rain = 0
KANS 161300Z 20006KT 04/M01 A3013 RMK A01 T00381008  RH  073%=      5-min Rain = 0
KANS 161305Z 19006KT 04/M01 A3013 RMK A01 T00371008  RH  073%=      5-min Rain = 0
KANS 161310Z 19006KT 04/M01 A3014 RMK A01 T00371008  RH  073%=      5-min Rain = 0
KANS 161315Z 19006KT 04/M01 A3014 RMK A01 T00371008  RH  073%=      5-min Rain = 0
KANS 161320Z 19006KT 04/M01 A3014 RMK A01 T00371008  RH  074%=      5-min Rain = 0
KANS 161325Z 19006KT 04/M01 A3014 RMK A01 T00371008  RH  074%=      5-min Rain = 0
KANS 161330Z 19006KT 04/M01 A3014 RMK A01 T00371007  RH  074%=      5-min Rain = 0
KANS 161335Z 18007KT 04/M01 A3014 RMK A01 T00381006  RH  073%=      5-min Rain = 0
KANS 161340Z 18007KT 04/M01 A3014 RMK A01 T00401006  RH  073%=      5-min Rain = 0
KANS 161345Z 18007KT 04/M01 A3014 RMK A01 T00411006  RH  072%=      5-min Rain = 0
KANS 161350Z 18007KT 04/M00 A3014 RMK A01 T00441004  RH  071%=      5-min Rain = 0
KANS 161355Z 18007KT 05/M00 A3014 RMK A01 T00481004  RH  070%=      5-min Rain = 0
KANS 161400Z 19007KT 05/M00 A3014 RMK A01 T00511004  RH  069%=      5-min Rain = 0
KANS 161405Z 19008KT 05/M00 A3014 RMK A01 T00531003  RH  068%=      5-min Rain = 0
KANS 161410Z 18008KT 05/M00 A3014 RMK A01 T00541003  RH  067%=      5-min Rain = 0
KANS 161415Z 19008KT 06/M00 A3014 RMK A01 T00551003  RH  067%=      5-min Rain = 0
KANS 161420Z 19007KT 06/M00 A3014 RMK A01 T00571002  RH  066%=      5-min Rain = 0
KANS 161425Z 19007KT 06/M00 A3014 RMK A01 T00591001  RH  066%=      5-min Rain = 0
KANS 161430Z 18008KT 06/00 A3014 RMK A01 T006200-0  RH  065%=      5-min Rain = 0
KANS 161435Z 18008KT 07/00 A3014 RMK A01 T00670002  RH  064%=      5-min Rain = 0
KANS 161440Z 18009KT 07/00 A3014 RMK A01 T00720002  RH  062%=      5-min Rain = 0
KANS 161445Z 18008KT 08/00 A3014 RMK A01 T00760004  RH  061%=      5-min Rain = 0
KANS 161450Z 19007KT 08/01 A3014 RMK A01 T00790005  RH  060%=      5-min Rain = 0
KANS 161455Z 18008KT 08/01 A3014 RMK A01 T00820006  RH  059%=      5-min Rain = 0
KANS 161500Z 18009KT 08/01 A3014 RMK A01 T00840006  RH  059%=      5-min Rain = 0
KANS 161505Z 18009KT 09/01 A3014 RMK A01 T00860007  RH  058%=      5-min Rain = 0
KANS 161510Z 18007KT 09/01 A3013 RMK A01 T00890008  RH  058%=      5-min Rain = 0
KANS 161515Z 18009KT 09/01 A3013 RMK A01 T00910008  RH  057%=      5-min Rain = 0
KANS 161520Z 18010KT 09/01 A3013 RMK A01 T00910008  RH  057%=      5-min Rain = 0
KANS 161525Z 18007KT 09/01 A3013 RMK A01 T00920009  RH  057%=      5-min Rain = 0
KANS 161530Z 18007KT 09/01 A3013 RMK A01 T00940010  RH  056%=      5-min Rain = 0
KANS 161535Z 18007KT 10/01 A3013 RMK A01 T00980012  RH  056%=      5-min Rain = 0
KANS 161540Z 18007KT 10/01 A3013 RMK A01 T01030013  RH  054%=      5-min Rain = 0
KANS 161545Z 18008KT 11/01 A3013 RMK A01 T01050012  RH  053%=      5-min Rain = 0
KANS 161550Z 18007KT 11/01 A3013 RMK A01 T01070012  RH  052%=      5-min Rain = 0
KANS 161555Z 18008KT 11/01 A3013 RMK A01 T01110012  RH  051%=      5-min Rain = 0
KANS 161600Z 17007KT 12/01 A3013 RMK A01 T01150012  RH  050%=      5-min Rain = 0
KANS 161605Z 17008KT 12/01 A3013 RMK A01 T01170011  RH  049%=      5-min Rain = 0
KANS 161610Z 17008KT 12/01 A3013 RMK A01 T01210011  RH  048%=      5-min Rain = 0
KANS 161615Z 17007KT 12/01 A3013 RMK A01 T01240011  RH  047%=      5-min Rain = 0
KANS 161620Z 17007KT 13/01 A3013 RMK A01 T01280011  RH  045%=      5-min Rain = 0
KANS 161625Z 17008KT 13/01 A3013 RMK A01 T01280010  RH  045%=      5-min Rain = 0
KANS 161630Z 18007KT 13/01 A3012 RMK A01 T01290011  RH  045%=      5-min Rain = 0
KANS 161635Z 18008KT 13/01 A3012 RMK A01 T01310012  RH  045%=      5-min Rain = 0
KANS 161640Z 18008KT 13/01 A3012 RMK A01 T01300010  RH  044%=      5-min Rain = 0
KANS 161645Z 17008KT 13/01 A3012 RMK A01 T01310011  RH  044%=      5-min Rain = 0
KANS 161650Z 17007KT 13/01 A3012 RMK A01 T01340012  RH  044%=      5-min Rain = 0
KANS 161655Z 17007KT 14/01 A3012 RMK A01 T01370012  RH  043%=      5-min Rain = 0
KANS 161700Z 17008KT 14/01 A3012 RMK A01 T01380011  RH  043%=      5-min Rain = 0
KANS 161705Z 17007KT 14/01 A3012 RMK A01 T01380012  RH  043%=      5-min Rain = 0
KANS 161710Z 19008KT 14/01 A3011 RMK A01 T01400011  RH  042%=      5-min Rain = 0
KANS 161715Z 18007KT 14/01 A3011 RMK A01 T01390012  RH  042%=      5-min Rain = 0
KANS 161720Z 18008KT 14/01 A3011 RMK A01 T01420013  RH  042%=      5-min Rain = 0
KANS 161725Z 17008KT 14/01 A3011 RMK A01 T01440012  RH  041%=      5-min Rain = 0
KANS 161730Z 17008KT 14/01 A301 RMK A01 T01440012  RH  041%=      5-min Rain = 0
KANS 161735Z 18008KT 15/01 A301 RMK A01 T01460011  RH  040%=      5-min Rain = 0
KANS 161740Z 18007KT 15/01 A301 RMK A01 T01460010  RH  040%=      5-min Rain = 0
KANS 161745Z 18007KT 15/01 A301 RMK A01 T01490012  RH  040%=      5-min Rain = 0
KANS 161750Z 19007KT 15/01 A301 RMK A01 T01520011  RH  039%=      5-min Rain = 0
KANS 161755Z 17007KT 16/01 A3009 RMK A01 T01550009  RH  037%=      5-min Rain = 0
KANS 161800Z 17007KT 16/01 A3009 RMK A01 T01600006  RH  036%=      5-min Rain = 0
KANS 161805Z 19006KT 17/00 A3008 RMK A01 T01650004  RH  034%=      5-min Rain = 0
KANS 161810Z 21005KT 17/00 A3008 RMK A01 T01680002  RH  033%=      5-min Rain = 0
KANS 161815Z 21007KT 17/00 A3008 RMK A01 T01710001  RH  032%=      5-min Rain = 0
KANS 161820Z 21006KT 17/00 A3007 RMK A01 T01710001  RH  032%=      5-min Rain = 0
KANS 161825Z 20007KT 18/00 A3007 RMK A01 T01760000  RH  031%=      5-min Rain = 0
KANS 161830Z 21006G12KT 18/M00 A3007 RMK A01 T01781001  RH  030%=      5-min Rain = 0
KANS 161835Z 22008KT 18/M00 A3006 RMK A01 T01801001  RH  030%=      5-min Rain = 0
KANS 161840Z 20007KT 19/M00 A3006 RMK A01 T01861001  RH  029%=      5-min Rain = 0
KANS 161845Z 21009G14KT 19/M00 A3005 RMK A01 T01891002  RH  028%=      5-min Rain = 0
KANS 161850Z 21008G15KT 19/M00 A3005 RMK A01 T01921001  RH  028%=      5-min Rain = 0
KANS 161855Z 19008KT 19/00 A3005 RMK A01 T019300-0  RH  028%=      5-min Rain = 0
KANS 161900Z 20009KT 19/M00 A3004 RMK A01 T01911002  RH  027%=      5-min Rain = 0
KANS 161905Z 20010KT 19/M00 A3004 RMK A01 T01861003  RH  028%=      5-min Rain = 0
KANS 161910Z 22010G15KT 19/M00 A3004 RMK A01 T01861003  RH  028%=      5-min Rain = 0
KANS 161915Z 21008G13KT 18/M00 A3004 RMK A01 T01831003  RH  029%=      5-min Rain = 0
KANS 161920Z 21009KT 19/M00 A3003 RMK A01 T01851003  RH  029%=      5-min Rain = 0
KANS 161925Z 20009G14KT 19/M00 A3003 RMK A01 T01891003  RH  028%=      5-min Rain = 0
KANS 161930Z 21010KT 19/M00 A3003 RMK A01 T01851003  RH  028%=      5-min Rain = 0
KANS 161935Z 21010KT 19/00 A3003 RMK A01 T018600-0  RH  029%=      5-min Rain = 0
KANS 161940Z 19011KT 19/M00 A3003 RMK A01 T01861002  RH  028%=      5-min Rain = 0
KANS 161945Z 21009G14KT 19/M00 A3003 RMK A01 T01871003  RH  028%=      5-min Rain = 0
KANS 161950Z 21009G14KT 19/M00 A3003 RMK A01 T01871004  RH  028%=      5-min Rain = 0
KANS 161955Z 21010KT 19/M00 A3003 RMK A01 T01921002  RH  027%=      5-min Rain = 0
KANS 162000Z 20011KT 19/M00 A3002 RMK A01 T01941004  RH  027%=      5-min Rain = 0
KANS 162005Z 21010KT 20/M00 A3002 RMK A01 T01951003  RH  027%=      5-min Rain = 0
KANS 162010Z 21010G16KT 20/M01 A3002 RMK A01 T01971005  RH  026%=      5-min Rain = 0
KANS 162015Z 19010G15KT 20/M01 A3002 RMK A01 T01961006  RH  026%=      5-min Rain = 0
KANS 162020Z 20010G15KT 20/M01 A3002 RMK A01 T01971007  RH  026%=      5-min Rain = 0
KANS 162025Z 20009KT 20/M01 A3001 RMK A01 T01971007  RH  026%=      5-min Rain = 0
KANS 162030Z 22010KT 20/M01 A3001 RMK A01 T01961009  RH  025%=      5-min Rain = 0
KANS 162035Z 22010KT 19/M01 A3001 RMK A01 T01901010  RH  026%=      5-min Rain = 0
KANS 162040Z 21008KT 19/M01 A3001 RMK A01 T01891008  RH  027%=      5-min Rain = 0
KANS 162045Z 21008G13KT 19/M01 A3001 RMK A01 T01881010  RH  026%=      5-min Rain = 0
KANS 162050Z 20007KT 19/M01 A30 RMK A01 T01901009  RH  026%=      5-min Rain = 0
KANS 162055Z 20008G13KT 19/M01 A30 RMK A01 T01921009  RH  026%=      5-min Rain = 0
KANS 162100Z 19008G13KT 19/M01 A30 RMK A01 T01941009  RH  026%=      5-min Rain = 0
KANS 162105Z 19009G14KT 20/M01 A2999 RMK A01 T01951011  RH  025%=      5-min Rain = 0
KANS 162110Z 20009KT 19/M01 A2999 RMK A01 T01941010  RH  025%=      5-min Rain = 0
KANS 162115Z 20008KT 20/M01 A2999 RMK A01 T01951008  RH  026%=      5-min Rain = 0
KANS 162120Z 21008KT 20/M01 A2999 RMK A01 T01961008  RH  026%=      5-min Rain = 0
KANS 162125Z 23007KT 20/M01 A2999 RMK A01 T01961007  RH  026%=      5-min Rain = 0
KANS 162130Z 24006KT 20/M01 A2999 RMK A01 T01981006  RH  026%=      5-min Rain = 0
KANS 162135Z 23005KT 20/M01 A2999 RMK A01 T01991006  RH  025%=      5-min Rain = 0
KANS 162140Z 22006G12KT 20/M01 A2999 RMK A01 T01991007  RH  025%=      5-min Rain = 0
KANS 162145Z 21006KT 20/M01 A2999 RMK A01 T01991008  RH  025%=      5-min Rain = 0
KANS 162150Z 21008G13KT 20/M01 A2999 RMK A01 T01981008  RH  025%=      5-min Rain = 0
KANS 162155Z 20010KT 20/M01 A2999 RMK A01 T01971008  RH  025%=      5-min Rain = 0
KANS 162200Z 21009KT 20/M01 A2999 RMK A01 T01961008  RH  026%=      5-min Rain = 0
KANS 162205Z 20009KT 20/M01 A2999 RMK A01 T01961007  RH  026%=      5-min Rain = 0
KANS 162210Z 19009KT 19/M01 A2999 RMK A01 T01941007  RH  026%=      5-min Rain = 0
KANS 162215Z 19010KT 19/M01 A2999 RMK A01 T01941006  RH  026%=      5-min Rain = 0
KANS 162220Z 19008KT 19/M01 A2999 RMK A01 T01941006  RH  026%=      5-min Rain = 0
KANS 162225Z 19007KT 19/M01 A2999 RMK A01 T01931006  RH  026%=      5-min Rain = 0
KANS 162230Z 20007KT 19/M01 A2999 RMK A01 T01931005  RH  027%=      5-min Rain = 0
KANS 162235Z 21007KT 20/M01 A2999 RMK A01 T01961006  RH  026%=      5-min Rain = 0
KANS 162240Z 21006G12KT 20/M01 A2999 RMK A01 T02041007  RH  025%=      5-min Rain = 0
KANS 162245Z 22008KT 20/M01 A2999 RMK A01 T02041008  RH  024%=      5-min Rain = 0
KANS 162250Z 22006KT 21/M01 A2999 RMK A01 T02051007  RH  024%=      5-min Rain = 0
KANS 162255Z 21007KT 21/M01 A2999 RMK A01 T02051006  RH  025%=      5-min Rain = 0
KANS 162300Z 20007KT 20/M01 A2999 RMK A01 T02011005  RH  025%=      5-min Rain = 0
KANS 162305Z 22006KT 20/M01 A2999 RMK A01 T01991005  RH  026%=      5-min Rain = 0
KANS 162310Z 21006KT 20/M01 A2999 RMK A01 T01971006  RH  026%=      5-min Rain = 0
KANS 162315Z 18008KT 19/00 A2999 RMK A01 T01930001  RH  028%=      5-min Rain = 0
KANS 162320Z 17008KT 19/01 A2999 RMK A01 T01870007  RH  030%=      5-min Rain = 0
KANS 162325Z 17009KT 18/01 A2999 RMK A01 T01830008  RH  031%=      5-min Rain = 0
KANS 162330Z 17009KT 18/01 A2999 RMK A01 T01790010  RH  032%=      5-min Rain = 0
KANS 162335Z 17009KT 18/01 A2999 RMK A01 T01750011  RH  033%=      5-min Rain = 0
KANS 162340Z 17007KT 17/01 A2999 RMK A01 T01710011  RH  034%=      5-min Rain = 0
KANS 162345Z 17007KT 17/01 A2999 RMK A01 T01670012  RH  036%=      5-min Rain = 0
KANS 162350Z 17007KT 16/02 A2999 RMK A01 T01630015  RH  037%=      5-min Rain = 0
KANS 162355Z 17007KT 16/02 A2999 RMK A01 T01590017  RH  039%=      5-min Rain = 0
KANS 170000Z 17007KT 16/02 A2999 RMK A01 T01550018  RH  040%=      5-min Rain = 0
KANS 170005Z 17007KT 15/02 A2999 RMK A01 T01520018  RH  041%=      5-min Rain = 0
KANS 170010Z 17007KT 15/02 A2999 RMK A01 T01490019  RH  042%=      5-min Rain = 0
KANS 170015Z 17007KT 15/02 A2999 RMK A01 T01450020  RH  043%=      5-min Rain = 0
KANS 170020Z 17007KT 14/02 A2999 RMK A01 T01420021  RH  044%=      5-min Rain = 0
KANS 170025Z 17007KT 14/02 A2999 RMK A01 T01390021  RH  045%=      5-min Rain = 0
KANS 170030Z 17006KT 14/02 A30 RMK A01 T01350022  RH  047%=      5-min Rain = 0
KANS 170035Z 17006KT 13/02 A30 RMK A01 T01310022  RH  048%=      5-min Rain = 0
KANS 170040Z 17007KT 13/02 A30 RMK A01 T01280023  RH  050%=      5-min Rain = 0
KANS 170045Z 17006KT 13/02 A30 RMK A01 T01250024  RH  051%=      5-min Rain = 0
KANS 170050Z 18006KT 12/03 A30 RMK A01 T01220025  RH  052%=      5-min Rain = 0
KANS 170055Z 18006KT 12/03 A30 RMK A01 T01210026  RH  053%=      5-min Rain = 0
KANS 170100Z 18006KT 12/03 A30 RMK A01 T01190027  RH  054%=      5-min Rain = 0
KANS 170105Z 18007KT 12/03 A30 RMK A01 T01190028  RH  054%=      5-min Rain = 0
KANS 170110Z 18007KT 12/03 A30 RMK A01 T01200029  RH  055%=      5-min Rain = 0
KANS 170115Z 18007KT 12/03 A30 RMK A01 T01190030  RH  055%=      5-min Rain = 0
KANS 170120Z 18007KT 12/03 A30 RMK A01 T01210031  RH  055%=      5-min Rain = 0
KANS 170125Z 18007KT 12/03 A30 RMK A01 T01210031  RH  055%=      5-min Rain = 0
KANS 170130Z 18007KT 12/03 A30 RMK A01 T01200032  RH  056%=      5-min Rain = 0
KANS 170135Z 18007KT 12/03 A30 RMK A01 T01210033  RH  056%=      5-min Rain = 0
KANS 170140Z 17007KT 12/03 A30 RMK A01 T01200034  RH  056%=      5-min Rain = 0
KANS 170145Z 17006KT 12/03 A30 RMK A01 T01180033  RH  057%=      5-min Rain = 0
KANS 170150Z 17006KT 11/03 A30 RMK A01 T01140033  RH  058%=      5-min Rain = 0
KANS 170155Z 17006KT 11/03 A30 RMK A01 T01110034  RH  060%=      5-min Rain = 0
KANS 170200Z 17006KT 11/04 A30 RMK A01 T01090035  RH  061%=      5-min Rain = 0
KANS 170205Z 17006KT 11/04 A30 RMK A01 T01080035  RH  061%=      5-min Rain = 0
KANS 170210Z 18006KT 11/04 A30 RMK A01 T01060035  RH  062%=      5-min Rain = 0
KANS 170215Z 18006KT 10/04 A30 RMK A01 T01040035  RH  063%=      5-min Rain = 0
KANS 170220Z 17006KT 10/04 A30 RMK A01 T01010035  RH  064%=      5-min Rain = 0
KANS 170225Z 18007KT 10/04 A30 RMK A01 T01000037  RH  065%=      5-min Rain = 0
KANS 170230Z 17008KT 10/04 A2999 RMK A01 T01010038  RH  065%=      5-min Rain = 0
KANS 170235Z 17008KT 10/04 A2999 RMK A01 T01020038  RH  065%=      5-min Rain = 0
KANS 170240Z 18008KT 10/04 A2999 RMK A01 T01030039  RH  066%=      5-min Rain = 0
KANS 170245Z 17006KT 10/04 A2999 RMK A01 T01020039  RH  066%=      5-min Rain = 0
KANS 170250Z 17007KT 10/04 A2999 RMK A01 T01010039  RH  066%=      5-min Rain = 0
KANS 170255Z 17007KT 10/04 A2999 RMK A01 T00990039  RH  067%=      5-min Rain = 0
KANS 170300Z 17007KT 10/04 A2999 RMK A01 T00970039  RH  068%=      5-min Rain = 0
KANS 170305Z 18007KT 10/04 A2999 RMK A01 T00950039  RH  069%=      5-min Rain = 0
KANS 170310Z 18006KT 09/04 A2999 RMK A01 T00940039  RH  069%=      5-min Rain = 0
KANS 170315Z 18007KT 09/04 A2999 RMK A01 T00920038  RH  070%=      5-min Rain = 0
KANS 170320Z 18006KT 09/04 A2999 RMK A01 T00900038  RH  071%=      5-min Rain = 0
KANS 170325Z 18006KT 09/04 A2999 RMK A01 T00890037  RH  071%=      5-min Rain = 0
KANS 170330Z 18006KT 09/04 A2999 RMK A01 T00870037  RH  072%=      5-min Rain = 0
KANS 170335Z 18006KT 09/04 A2999 RMK A01 T00850036  RH  072%=      5-min Rain = 0
KANS 170340Z 18005KT 08/04 A2999 RMK A01 T00830036  RH  073%=      5-min Rain = 0
KANS 170345Z 18005KT 08/04 A2999 RMK A01 T00820035  RH  074%=      5-min Rain = 0
KANS 170350Z 18005KT 08/04 A2998 RMK A01 T00800035  RH  074%=      5-min Rain = 0
KANS 170355Z 19005KT 08/03 A2998 RMK A01 T00770033  RH  075%=      5-min Rain = 0
KANS 170400Z 19006KT 08/03 A2999 RMK A01 T00750034  RH  076%=      5-min Rain = 0
KANS 170405Z 19006KT 07/03 A2999 RMK A01 T00740034  RH  077%=      5-min Rain = 0
KANS 170410Z 19006KT 07/04 A2999 RMK A01 T00740035  RH  077%=      5-min Rain = 0
KANS 170415Z 19008KT 08/04 A2999 RMK A01 T00770037  RH  077%=      5-min Rain = 0
KANS 170420Z 19008KT 08/04 A2999 RMK A01 T00790036  RH  075%=      5-min Rain = 0
KANS 170425Z 19009KT 08/04 A2999 RMK A01 T00810037  RH  075%=      5-min Rain = 0
KANS 170430Z 19009KT 08/04 A2999 RMK A01 T00830038  RH  074%=      5-min Rain = 0
KANS 170435Z 19008KT 08/04 A2999 RMK A01 T00840038  RH  074%=      5-min Rain = 0
KANS 170440Z 19009KT 09/04 A2998 RMK A01 T00850038  RH  074%=      5-min Rain = 0
KANS 170445Z 19008KT 09/04 A2998 RMK A01 T00850038  RH  074%=      5-min Rain = 0
KANS 170450Z 20007KT 09/04 A2998 RMK A01 T00850039  RH  074%=      5-min Rain = 0
KANS 170455Z 20008KT 09/04 A2999 RMK A01 T00850039  RH  074%=      5-min Rain = 0
KANS 170500Z 20008KT 09/04 A2999 RMK A01 T00860039  RH  073%=      5-min Rain = 0
KANS 170505Z 20009KT 09/04 A2999 RMK A01 T00870039  RH  073%=      5-min Rain = 0
KANS 170510Z 20008KT 09/04 A2998 RMK A01 T00870039  RH  073%=      5-min Rain = 0
KANS 170515Z 20008KT 09/04 A2998 RMK A01 T00860039  RH  073%=      5-min Rain = 0
KANS 170520Z 20009G14KT 09/04 A2998 RMK A01 T00850039  RH  073%=      5-min Rain = 0
KANS 170525Z 20008KT 09/04 A2998 RMK A01 T00850038  RH  073%=      5-min Rain = 0
KANS 170530Z 20009KT 09/04 A2998 RMK A01 T00860039  RH  073%=      5-min Rain = 0
KANS 170535Z 21008G13KT 09/04 A2998 RMK A01 T00860038  RH  073%=      5-min Rain = 0
KANS 170540Z 21009KT 09/04 A2998 RMK A01 T00850038  RH  074%=      5-min Rain = 0
KANS 170545Z 21010KT 08/04 A2998 RMK A01 T00840038  RH  074%=      5-min Rain = 0
KANS 170550Z 21009G14KT 08/04 A2998 RMK A01 T00840038  RH  074%=      5-min Rain = 0
KANS 170555Z 21008KT 08/04 A2998 RMK A01 T00820038  RH  075%=      5-min Rain = 0

Page generated in 0.0106 seconds.